createdAt,value
2024-05-09T00:00:46.213Z,82.08
2024-05-09T00:03:13.914Z,82.61
2024-05-09T00:05:42.165Z,83.00
2024-05-09T00:08:10.616Z,83.31
2024-05-09T00:10:39.634Z,83.53
2024-05-09T00:13:08.631Z,83.78
2024-05-09T00:15:36.811Z,83.90
2024-05-09T00:18:05.554Z,83.88
2024-05-09T00:20:38.831Z,83.76
2024-05-09T00:23:12.677Z,83.27
2024-05-09T00:25:43.000Z,82.74
2024-05-09T00:28:11.788Z,82.01
2024-05-09T00:30:39.257Z,81.68
2024-05-09T00:33:08.192Z,81.59
2024-05-09T00:35:37.242Z,81.17
2024-05-09T00:38:05.158Z,80.90
2024-05-09T00:40:40.516Z,80.44
2024-05-09T00:43:14.478Z,80.28
2024-05-09T00:45:42.927Z,80.32
2024-05-09T00:48:12.263Z,80.30
2024-05-09T00:50:42.117Z,80.21
2024-05-09T00:53:13.439Z,80.39
2024-05-09T00:55:41.015Z,80.42
2024-05-09T00:58:09.069Z,80.54
2024-05-09T01:00:39.973Z,80.31
2024-05-09T01:03:11.274Z,80.32
2024-05-09T01:05:40.852Z,80.34
2024-05-09T01:08:09.044Z,80.25
2024-05-09T01:10:37.409Z,80.19
2024-05-09T01:13:05.788Z,80.12
2024-05-09T01:15:33.482Z,80.19
2024-05-09T01:18:12.384Z,80.34
2024-05-09T01:20:43.825Z,80.71
2024-05-09T01:23:14.663Z,80.46
2024-05-09T01:25:43.982Z,80.43
2024-05-09T01:28:11.586Z,80.42
2024-05-09T01:30:39.118Z,80.20
2024-05-09T01:33:09.050Z,80.17
2024-05-09T01:35:39.362Z,80.05
2024-05-09T01:38:08.037Z,80.15
2024-05-09T01:40:38.716Z,79.89
2024-05-09T01:43:11.533Z,80.33
2024-05-09T01:45:40.497Z,80.72
2024-05-09T01:48:08.840Z,80.89
2024-05-09T01:50:40.495Z,80.90
2024-05-09T01:53:10.889Z,80.69
2024-05-09T01:55:38.505Z,80.92
2024-05-09T01:58:06.300Z,81.14
2024-05-09T02:00:39.412Z,81.25
2024-05-09T02:03:15.924Z,81.24
2024-05-09T02:05:46.153Z,81.29
2024-05-09T02:08:15.485Z,81.34
2024-05-09T02:10:44.644Z,81.35
2024-05-09T02:13:12.477Z,81.44
2024-05-09T02:15:39.938Z,81.53
2024-05-09T02:18:08.859Z,81.64
2024-05-09T02:20:39.396Z,81.61
2024-05-09T02:23:07.425Z,81.64
2024-05-09T02:25:35.055Z,81.51
2024-05-09T02:28:02.615Z,81.55
2024-05-09T02:30:38.833Z,81.52
2024-05-09T02:33:11.072Z,81.51
2024-05-09T02:35:40.558Z,81.81
2024-05-09T02:38:09.231Z,81.99
2024-05-09T02:40:38.963Z,82.08
2024-05-09T02:43:08.264Z,81.94
2024-05-09T02:45:36.561Z,81.96
2024-05-09T02:48:04.264Z,81.90
2024-05-09T02:50:37.891Z,81.88
2024-05-09T02:53:13.811Z,81.93
2024-05-09T02:55:42.554Z,81.96
2024-05-09T02:58:10.407Z,81.86
2024-05-09T03:00:40.959Z,81.91
2024-05-09T03:03:15.246Z,81.84
2024-05-09T03:05:44.661Z,81.85
2024-05-09T03:08:12.716Z,81.81
2024-05-09T03:10:40.457Z,81.89
2024-05-09T03:13:08.926Z,81.94
2024-05-09T03:15:36.459Z,82.09
2024-05-09T03:18:04.908Z,82.30
2024-05-09T03:20:34.980Z,82.19
2024-05-09T03:23:05.074Z,82.14
2024-05-09T03:25:33.280Z,82.25
2024-05-09T03:28:00.775Z,82.29
2024-05-09T03:30:36.231Z,82.31
2024-05-09T03:33:18.003Z,82.33
2024-05-09T03:35:47.479Z,82.46
2024-05-09T03:38:15.272Z,82.51
2024-05-09T03:40:50.307Z,82.45
2024-05-09T03:43:18.597Z,82.36
2024-05-09T03:45:47.648Z,82.35
2024-05-09T03:48:15.424Z,82.41
2024-05-09T03:50:43.206Z,82.39
2024-05-09T03:53:11.668Z,82.36
2024-05-09T03:55:39.347Z,82.25
2024-05-09T03:58:09.778Z,82.31
2024-05-09T04:00:39.491Z,82.42
2024-05-09T04:03:10.470Z,82.43
2024-05-09T04:05:41.743Z,82.45
2024-05-09T04:08:10.875Z,82.43
2024-05-09T04:10:38.586Z,82.44
2024-05-09T04:13:06.037Z,82.44
2024-05-09T04:15:33.630Z,82.47
2024-05-09T04:18:01.916Z,82.48
2024-05-09T04:20:37.573Z,82.52
2024-05-09T04:23:09.136Z,82.67
2024-05-09T04:25:37.238Z,82.60
2024-05-09T04:28:05.461Z,82.53
2024-05-09T04:30:38.544Z,82.64
2024-05-09T04:33:10.895Z,82.36
2024-05-09T04:35:42.619Z,82.04
2024-05-09T04:38:10.653Z,81.44
2024-05-09T04:40:38.439Z,81.15
2024-05-09T04:43:07.807Z,80.83
2024-05-09T04:45:35.769Z,81.05
2024-05-09T04:48:03.881Z,80.75
2024-05-09T04:50:36.945Z,80.67
2024-05-09T04:53:08.511Z,80.74
2024-05-09T04:55:37.438Z,80.42
2024-05-09T04:58:05.872Z,80.00
2024-05-09T05:00:37.486Z,79.34
2024-05-09T05:03:08.488Z,78.88
2024-05-09T05:05:43.484Z,78.39
2024-05-09T05:08:17.036Z,77.92
2024-05-09T05:10:46.279Z,77.43
2024-05-09T05:13:21.231Z,77.83
2024-05-09T05:15:50.413Z,77.99
2024-05-09T05:18:18.660Z,78.60
2024-05-09T05:20:46.560Z,78.59
2024-05-09T05:23:15.597Z,78.22
2024-05-09T05:25:43.462Z,77.28
2024-05-09T05:28:11.244Z,76.43
2024-05-09T05:30:39.070Z,76.87
2024-05-09T05:33:07.095Z,76.97
2024-05-09T05:35:35.233Z,76.38
2024-05-09T05:38:03.489Z,75.66
2024-05-09T05:40:37.171Z,75.45
2024-05-09T05:43:17.392Z,75.12
2024-05-09T05:45:45.167Z,74.90
2024-05-09T05:48:13.504Z,75.91
2024-05-09T05:50:41.230Z,75.95
2024-05-09T05:53:09.670Z,75.15
2024-05-09T05:55:38.266Z,74.55
2024-05-09T05:58:05.931Z,74.74
2024-05-09T06:00:38.450Z,75.12
2024-05-09T06:03:08.734Z,74.70
2024-05-09T06:05:37.598Z,73.93
2024-05-09T06:08:05.486Z,74.26
2024-05-09T06:10:38.339Z,73.81
2024-05-09T06:13:08.284Z,72.35
2024-05-09T06:15:35.787Z,72.82
2024-05-09T06:18:06.437Z,72.89
2024-05-09T06:20:36.824Z,73.99
2024-05-09T06:23:06.988Z,71.85
2024-05-09T06:25:38.024Z,71.18
2024-05-09T06:28:06.026Z,70.73
2024-05-09T06:30:38.927Z,70.19
2024-05-09T06:33:10.786Z,70.32
2024-05-09T06:35:40.193Z,70.23
2024-05-09T06:38:11.003Z,70.09
2024-05-09T06:40:41.778Z,69.86
2024-05-09T06:43:14.752Z,68.58
2024-05-09T06:45:43.232Z,68.81
2024-05-09T06:48:10.793Z,68.67
2024-05-09T06:50:39.815Z,68.04
2024-05-09T06:53:08.760Z,65.31
2024-05-09T06:55:36.878Z,64.44
2024-05-09T06:58:06.194Z,65.64
2024-05-09T07:00:39.130Z,63.39
2024-05-09T07:03:09.975Z,63.32
2024-05-09T07:05:38.351Z,63.78
2024-05-09T07:08:06.739Z,63.93
2024-05-09T07:10:36.211Z,63.19
2024-05-09T07:13:08.608Z,62.95
2024-05-09T07:15:35.962Z,64.58
2024-05-09T07:18:20.477Z,65.23
2024-05-09T07:20:49.827Z,66.03
2024-05-09T07:23:18.218Z,61.79
2024-05-09T07:25:46.156Z,61.93
2024-05-09T07:28:17.923Z,59.56
2024-05-09T07:30:45.620Z,59.71
2024-05-09T07:33:21.331Z,61.77
2024-05-09T07:35:50.434Z,58.36
2024-05-09T07:38:17.975Z,57.89
2024-05-09T07:40:45.624Z,58.04
2024-05-09T07:43:14.734Z,59.47
2024-05-09T07:45:51.271Z,60.00
2024-05-09T07:52:37.638Z,58.08
2024-05-09T07:53:50.646Z,56.91
2024-05-09T07:56:22.767Z,57.17
2024-05-09T07:58:52.314Z,57.11
2024-05-09T08:01:21.150Z,57.07
2024-05-09T08:03:49.037Z,56.79
2024-05-09T08:06:16.560Z,56.23
2024-05-09T08:08:43.970Z,57.06
2024-05-09T08:11:11.440Z,57.04
2024-05-09T08:13:38.988Z,54.89
2024-05-09T08:16:07.219Z,57.40
2024-05-09T08:18:34.784Z,57.46
2024-05-09T08:21:02.498Z,57.45
2024-05-09T08:23:29.944Z,56.71
2024-05-09T08:25:57.358Z,54.08
2024-05-09T08:28:24.887Z,53.23
2024-05-09T08:30:52.502Z,53.15
2024-05-09T08:33:20.240Z,54.18
2024-05-09T08:35:47.811Z,53.69
2024-05-09T08:38:15.292Z,52.74
2024-05-09T08:40:43.101Z,51.91
2024-05-09T08:43:12.151Z,49.44
2024-05-09T08:45:44.016Z,49.25
2024-05-09T08:48:13.916Z,49.19
2024-05-09T08:50:42.286Z,51.01
2024-05-09T08:53:10.235Z,51.10
2024-05-09T08:55:41.588Z,48.20
2024-05-09T08:58:20.728Z,49.76
2024-05-09T09:00:49.190Z,49.01
2024-05-09T09:03:20.435Z,50.25
2024-05-09T09:06:00.765Z,52.13
2024-05-09T09:08:28.177Z,52.29
2024-05-09T09:10:57.866Z,53.59
2024-05-09T09:13:25.524Z,53.48
2024-05-09T09:15:57.763Z,54.95
2024-05-09T09:18:26.878Z,51.26
2024-05-09T09:20:54.518Z,49.54
2024-05-09T09:23:22.119Z,52.11
2024-05-09T09:25:49.531Z,50.10
2024-05-09T09:28:16.989Z,50.59
2024-05-09T09:30:44.563Z,51.17
2024-05-09T09:33:12.502Z,48.81
2024-05-09T09:35:40.239Z,50.00
2024-05-09T09:38:08.052Z,47.62
2024-05-09T09:40:43.171Z,48.73
2024-05-09T09:43:23.901Z,49.39
2024-05-09T09:45:53.431Z,46.09
2024-05-09T09:48:22.763Z,46.90
2024-05-09T09:50:52.273Z,49.69
2024-05-09T09:53:20.238Z,48.29
2024-05-09T09:55:47.543Z,49.88
2024-05-09T09:58:18.135Z,49.45
2024-05-09T10:00:46.019Z,47.83
2024-05-09T10:03:13.669Z,49.73
2024-05-09T10:05:44.255Z,50.13
2024-05-09T10:08:14.069Z,50.45
2024-05-09T10:10:41.657Z,50.76
2024-05-09T10:13:09.208Z,51.11
2024-05-09T10:15:45.804Z,52.19
2024-05-09T10:18:13.556Z,51.74
2024-05-09T10:20:44.895Z,52.31
2024-05-09T10:23:28.453Z,54.28
2024-05-09T10:26:06.335Z,54.49
2024-05-09T10:28:37.797Z,54.84
2024-05-09T10:31:13.648Z,55.45
2024-05-09T10:33:47.188Z,55.61
2024-05-09T10:36:15.153Z,55.97
2024-05-09T10:38:43.482Z,56.73
2024-05-09T10:41:11.664Z,58.33
2024-05-09T10:43:43.773Z,58.24
2024-05-09T10:46:11.818Z,59.41
2024-05-09T10:48:40.142Z,59.97
2024-05-09T10:51:07.647Z,60.81
2024-05-09T10:53:45.295Z,60.51
2024-05-09T10:56:14.348Z,60.16
2024-05-09T10:58:41.896Z,60.73
2024-05-09T11:01:10.625Z,61.34
2024-05-09T11:03:39.170Z,64.60
2024-05-09T11:06:07.299Z,66.51
2024-05-09T11:08:35.168Z,67.64
2024-05-09T11:11:04.983Z,68.81
2024-05-09T11:13:36.539Z,70.75
2024-05-09T11:16:04.675Z,71.12
2024-05-09T11:18:36.470Z,72.47
2024-05-09T11:21:14.669Z,73.41
2024-05-09T11:23:42.059Z,73.28
2024-05-09T11:26:11.166Z,73.55
2024-05-09T11:28:38.703Z,73.65
2024-05-09T11:31:08.020Z,73.47
2024-05-09T11:33:40.028Z,72.89
2024-05-09T11:36:08.187Z,73.01
2024-05-09T11:38:35.643Z,72.76
2024-05-09T11:41:03.839Z,72.52
2024-05-09T11:43:31.068Z,71.90
2024-05-09T11:45:58.820Z,72.73
2024-05-09T11:48:27.263Z,73.72
2024-05-09T11:50:55.222Z,73.76
2024-05-09T11:53:22.761Z,73.46
2024-05-09T11:55:50.429Z,74.46
2024-05-09T11:58:19.099Z,74.99
2024-05-09T12:00:47.390Z,74.95
2024-05-09T12:03:15.164Z,75.09
2024-05-09T12:05:42.789Z,75.79
2024-05-09T12:08:10.389Z,76.62
2024-05-09T12:10:38.099Z,75.97
2024-05-09T12:13:07.084Z,75.33
2024-05-09T12:15:38.064Z,74.81
2024-05-09T12:18:06.983Z,76.09
2024-05-09T12:20:38.210Z,76.88
2024-05-09T12:23:09.294Z,77.25
2024-05-09T12:25:38.248Z,77.95
2024-05-09T12:28:06.501Z,78.16
2024-05-09T12:30:38.215Z,78.17
2024-05-09T12:33:12.494Z,77.82
2024-05-09T12:35:43.372Z,77.88
2024-05-09T12:38:13.161Z,78.04
2024-05-09T12:40:40.590Z,77.82
2024-05-09T12:43:09.271Z,78.41
2024-05-09T12:45:38.105Z,78.92
2024-05-09T12:48:08.551Z,79.21
2024-05-09T12:50:36.959Z,79.40
2024-05-09T12:53:05.435Z,79.53
2024-05-09T12:55:41.404Z,79.44
2024-05-09T12:58:19.331Z,79.73
2024-05-09T13:00:47.493Z,80.04
2024-05-09T13:03:15.405Z,80.43
2024-05-09T13:05:45.345Z,79.38
2024-05-09T13:08:13.590Z,79.23
2024-05-09T13:10:41.278Z,78.34
2024-05-09T13:13:10.371Z,77.59
2024-05-09T13:15:38.100Z,77.37
2024-05-09T13:18:06.751Z,78.08
2024-05-09T13:20:35.865Z,77.04
2024-05-09T13:23:08.325Z,77.80
2024-05-09T13:25:37.846Z,76.93
2024-05-09T13:28:06.282Z,76.43
2024-05-09T13:30:39.532Z,76.80
2024-05-09T13:33:11.516Z,76.97
2024-05-09T13:35:41.985Z,75.26
2024-05-09T13:38:11.548Z,74.36
2024-05-09T13:40:39.214Z,72.90
2024-05-09T13:43:07.103Z,72.54
2024-05-09T13:45:35.399Z,74.77
2024-05-09T13:48:04.284Z,75.09
2024-05-09T13:50:35.673Z,74.92
2024-05-09T13:53:06.579Z,75.90
2024-05-09T13:55:35.598Z,74.63
2024-05-09T13:58:03.349Z,73.45
2024-05-09T14:00:42.720Z,73.12
2024-05-09T14:03:15.912Z,72.59
2024-05-09T14:05:44.007Z,71.42
2024-05-09T14:08:11.962Z,72.10
2024-05-09T14:10:44.638Z,72.48
2024-05-09T14:13:13.196Z,72.78
2024-05-09T14:15:41.162Z,74.37
2024-05-09T14:18:12.413Z,73.91
2024-05-09T14:20:41.529Z,73.32
2024-05-09T14:23:09.193Z,71.33
2024-05-09T14:25:39.766Z,71.63
2024-05-09T14:28:09.432Z,72.29
2024-05-09T14:30:38.497Z,70.11
2024-05-09T14:33:07.791Z,67.80
2024-05-09T14:35:37.846Z,69.31
2024-05-09T14:38:05.880Z,67.50
2024-05-09T14:43:04.026Z,68.92
2024-05-09T14:45:32.944Z,70.01
2024-05-09T14:48:00.703Z,69.32
2024-05-09T14:50:35.185Z,69.60
2024-05-09T14:53:06.830Z,69.47
2024-05-09T14:55:37.643Z,71.28
2024-05-09T14:58:11.984Z,71.17
2024-05-09T15:00:47.955Z,71.13
2024-05-09T15:03:19.633Z,69.61
2024-05-09T15:05:47.886Z,68.04
2024-05-09T15:08:15.397Z,66.99
2024-05-09T15:10:43.208Z,66.61
2024-05-09T15:13:13.228Z,67.92
2024-05-09T15:15:42.756Z,68.72
2024-05-09T15:18:10.316Z,70.37
2024-05-09T15:20:38.407Z,70.14
2024-05-09T15:23:06.957Z,70.84
2024-05-09T15:25:35.455Z,71.67
2024-05-09T15:28:03.387Z,71.05
2024-05-09T15:30:33.359Z,72.77
2024-05-09T15:33:06.418Z,72.93
2024-05-09T15:35:35.088Z,73.46
2024-05-09T15:38:03.589Z,73.72
2024-05-09T15:40:38.381Z,74.74
2024-05-09T15:43:09.301Z,75.43
2024-05-09T15:45:38.303Z,75.98
2024-05-09T15:48:06.429Z,76.81
2024-05-09T15:50:38.901Z,77.05
2024-05-09T15:53:10.125Z,77.55
2024-05-09T15:55:38.496Z,78.02
2024-05-09T15:58:07.125Z,78.20
2024-05-09T16:00:39.465Z,78.75
2024-05-09T16:03:10.659Z,78.88
2024-05-09T16:05:38.796Z,79.47
2024-05-09T16:08:07.181Z,79.76
2024-05-09T16:10:35.398Z,80.04
2024-05-09T16:13:03.940Z,80.18
2024-05-09T16:15:31.876Z,80.79
2024-05-09T16:18:00.019Z,81.38
2024-05-09T16:20:35.256Z,81.73
2024-05-09T16:23:08.705Z,82.10
2024-05-09T16:25:36.804Z,82.51
2024-05-09T16:28:08.626Z,82.83
2024-05-09T16:30:41.318Z,82.93
2024-05-09T16:33:11.087Z,83.03
2024-05-09T16:35:39.630Z,83.21
2024-05-09T16:38:07.448Z,83.44
2024-05-09T16:40:39.165Z,83.21
2024-05-09T16:43:10.013Z,83.16
2024-05-09T16:45:38.301Z,83.36
2024-05-09T16:48:06.904Z,83.59
2024-05-09T16:50:35.868Z,83.53
2024-05-09T16:53:05.641Z,83.54
2024-05-09T16:55:34.375Z,83.48
2024-05-09T16:58:02.751Z,83.38
2024-05-09T17:00:38.872Z,83.25
2024-05-09T17:03:10.893Z,83.31
2024-05-09T17:05:39.583Z,83.22
2024-05-09T17:08:07.730Z,83.01
2024-05-09T17:10:36.609Z,83.29
2024-05-09T17:13:06.184Z,83.53
2024-05-09T17:15:35.672Z,83.35
2024-05-09T17:18:04.186Z,83.58
2024-05-09T17:20:35.154Z,83.67
2024-05-09T17:23:05.968Z,83.86
2024-05-09T17:25:34.615Z,84.11
2024-05-09T17:28:07.893Z,84.11
2024-05-09T17:30:38.371Z,84.12
2024-05-09T17:33:08.792Z,84.25
2024-05-09T17:35:37.399Z,84.33
2024-05-09T17:38:06.343Z,84.33
2024-05-09T17:40:36.588Z,84.28
2024-05-09T17:43:07.671Z,84.53
2024-05-09T17:45:41.061Z,84.54
2024-05-09T17:48:10.643Z,84.74
2024-05-09T17:50:39.594Z,84.71
2024-05-09T17:53:07.614Z,84.61
2024-05-09T17:55:35.765Z,84.37
2024-05-09T17:58:04.448Z,84.24
2024-05-09T18:00:38.161Z,84.32
2024-05-09T18:03:11.798Z,84.46
2024-05-09T18:05:40.624Z,84.39
2024-05-09T18:08:08.891Z,84.32
2024-05-09T18:10:39.268Z,84.18
2024-05-09T18:13:09.056Z,84.20
2024-05-09T18:15:39.202Z,84.27
2024-05-09T18:18:07.576Z,84.41
2024-05-09T18:20:42.405Z,84.56
2024-05-09T18:23:14.356Z,84.69
2024-05-09T18:25:43.078Z,84.82
2024-05-09T18:28:10.954Z,84.69
2024-05-09T18:30:38.511Z,84.63
2024-05-09T18:33:07.951Z,84.73
2024-05-09T18:35:36.731Z,84.62
2024-05-09T18:38:05.788Z,84.32
2024-05-09T18:40:36.611Z,84.08
2024-05-09T18:43:07.830Z,84.11
2024-05-09T18:45:38.094Z,84.08
2024-05-09T18:48:07.333Z,84.13
2024-05-09T18:50:38.790Z,84.21
2024-05-09T18:53:08.469Z,84.25
2024-05-09T18:55:36.136Z,84.24
2024-05-09T18:58:05.021Z,84.32
2024-05-09T19:00:36.587Z,84.43
2024-05-09T19:03:12.429Z,84.26
2024-05-09T19:05:43.151Z,84.27
2024-05-09T19:08:11.828Z,84.20
2024-05-09T19:10:39.627Z,84.18
2024-05-09T19:13:11.737Z,84.35
2024-05-09T19:15:41.532Z,84.31
2024-05-09T19:18:09.876Z,84.19
2024-05-09T19:20:38.056Z,84.31
2024-05-09T19:23:06.653Z,84.39
2024-05-09T19:25:35.364Z,84.44
2024-05-09T19:28:03.804Z,84.48
2024-05-09T19:30:38.699Z,84.53
2024-05-09T19:33:10.243Z,84.66
2024-05-09T19:35:38.862Z,84.60
2024-05-09T19:38:06.537Z,84.35
2024-05-09T19:40:35.456Z,84.36
2024-05-09T19:43:05.291Z,84.28
2024-05-09T19:45:35.064Z,84.05
2024-05-09T19:48:04.092Z,84.03
2024-05-09T19:50:39.886Z,83.98
2024-05-09T19:53:11.658Z,83.98
2024-05-09T19:55:39.240Z,83.96
2024-05-09T19:58:07.730Z,83.96
2024-05-09T20:00:38.158Z,83.92
2024-05-09T20:03:08.266Z,84.04
2024-05-09T20:05:36.982Z,84.07
2024-05-09T20:08:05.296Z,84.21
2024-05-09T20:10:35.084Z,84.32
2024-05-09T20:13:04.838Z,84.35
2024-05-09T20:15:34.942Z,84.44
2024-05-09T20:18:02.882Z,84.46
2024-05-09T20:20:37.446Z,84.33
2024-05-09T20:23:09.545Z,84.33
2024-05-09T20:25:37.199Z,84.14
2024-05-09T20:28:06.614Z,84.35
2024-05-09T20:30:35.472Z,84.64
2024-05-09T20:33:05.026Z,84.69
2024-05-09T20:35:33.911Z,84.49
2024-05-09T20:38:02.516Z,84.43
2024-05-09T20:40:34.612Z,84.74
2024-05-09T20:43:05.694Z,84.80
2024-05-09T20:45:34.171Z,84.89
2024-05-09T20:48:02.102Z,85.05
2024-05-09T20:50:37.214Z,84.88
2024-05-09T20:53:09.800Z,84.84
2024-05-09T20:55:37.509Z,84.53
2024-05-09T20:58:05.455Z,84.63
2024-05-09T21:00:40.209Z,84.69
2024-05-09T21:03:11.842Z,84.73
2024-05-09T21:05:40.444Z,84.43
2024-05-09T21:08:08.394Z,84.22
2024-05-09T21:10:37.118Z,84.20
2024-05-09T21:13:06.099Z,84.20
2024-05-09T21:15:34.475Z,83.99
2024-05-09T21:18:02.208Z,83.90
2024-05-09T21:20:32.811Z,83.96
2024-05-09T21:23:02.003Z,83.90
2024-05-09T21:25:30.106Z,83.95
2024-05-09T21:27:58.022Z,84.03
2024-05-09T21:32:55.894Z,84.15
2024-05-09T21:35:23.469Z,84.07
2024-05-09T21:37:50.827Z,83.81
2024-05-09T21:40:27.085Z,83.77
2024-05-09T21:43:01.445Z,83.86
2024-05-09T21:45:29.023Z,83.88
2024-05-09T21:47:56.613Z,83.88
2024-05-09T21:50:31.892Z,83.87
2024-05-09T21:53:06.781Z,83.93
2024-05-09T21:55:34.631Z,83.98
2024-05-09T21:58:02.476Z,84.28
2024-05-09T22:00:36.119Z,84.47
2024-05-09T22:03:09.468Z,84.52
2024-05-09T22:05:39.270Z,84.55
2024-05-09T22:08:07.334Z,84.61
2024-05-09T22:10:36.491Z,84.52
2024-05-09T22:13:07.585Z,84.50
2024-05-09T22:15:36.852Z,84.49
2024-05-09T22:18:05.821Z,84.44
2024-05-09T22:20:37.542Z,84.28
2024-05-09T22:23:07.257Z,84.13
2024-05-09T22:25:34.872Z,83.93
2024-05-09T22:28:03.036Z,83.78
2024-05-09T22:30:36.357Z,83.58
2024-05-09T22:33:08.289Z,83.49
2024-05-09T22:35:36.601Z,83.43
2024-05-09T22:38:04.317Z,83.46
2024-05-09T22:40:42.156Z,83.39
2024-05-09T22:43:18.034Z,83.54
2024-05-09T22:45:45.808Z,83.55
2024-05-09T22:48:13.462Z,83.61
2024-05-09T22:50:41.474Z,83.59
2024-05-09T22:53:08.870Z,83.45
2024-05-09T22:55:36.392Z,83.47
2024-05-09T22:58:03.963Z,83.37
2024-05-09T23:00:32.854Z,83.40
2024-05-09T23:03:01.732Z,83.20
2024-05-09T23:05:29.920Z,83.03
2024-05-09T23:07:57.406Z,83.03
2024-05-09T23:10:32.125Z,83.05
2024-05-09T23:13:04.122Z,83.22
2024-05-09T23:15:31.779Z,83.25
2024-05-09T23:17:59.501Z,83.14
2024-05-09T23:20:35.978Z,83.20
2024-05-09T23:23:07.166Z,83.23
2024-05-09T23:25:35.100Z,83.23
2024-05-09T23:28:02.832Z,83.53
2024-05-09T23:30:37.546Z,83.53
2024-05-09T23:33:08.455Z,83.54
2024-05-09T23:35:36.412Z,83.55
2024-05-09T23:38:04.268Z,83.58
2024-05-09T23:40:38.621Z,83.20
2024-05-09T23:43:09.465Z,83.22
2024-05-09T23:45:37.424Z,83.12
2024-05-09T23:48:05.643Z,83.38
2024-05-09T23:50:36.804Z,83.57
2024-05-09T23:53:07.948Z,83.63
2024-05-09T23:55:36.793Z,83.52
2024-05-09T23:58:04.462Z,83.39
